Fair Seas — V7PD2 — position and weather

sailwx.info

Track history (hours):
 
Tides and Currents Weather Stations Pressure Air Temp Water Temp Dewpoint Dewpoint Depression Visibility Wind Speed Wind Dir Waves Ship Positions

Fair Seas

Last reported at 2015-May-14 07:32 UTC. Time now 2015-May-25 15:39 UTC.
Position N 02°00' E 102°12'.
Warning: this ship's position is 11 days out of date.

Length 250 m; draft 7.9 m.

Type: Ship (hazmat cat D). MMSI: 538003211.

Date/timePositionNaut miles runAvg speedWind from/ knotsBaromVisibWave heightAir tempDewpointWater temp
2015-May-14 07:32N 02°00' E 102°12'1412.8
2015-May-14 06:28N 01°53' E 102°24'1313.7
2015-May-14 05:33N 01°48' E 102°36'1514.5
2015-May-14 04:29N 01°42' E 102°49'6011.7
2015-May-13 23:22N 01°12' E 103°42'3 0.1
2015-May-13 06:14N 01°14' E 103°42'2 0.0
2015-May-11 09:17N 01°16' E 103°41'4 2.5
2015-May-11 07:33N 01°16' E 103°45'9 9.0
2015-May-11 06:33N 01°14' E 103°54'2 1.7
2015-May-11 05:30N 01°16' E 103°54'0 0.1
2015-May-11 04:06N 01°16' E 103°54'0 0.1
2015-May-11 02:18N 01°16' E 103°54'0 0.0
2015-May-11 01:30N 01°16' E 103°54'0 0.1
2015-May-11 00:18N 01°16' E 103°54'0 0.0
2015-May-10 23:27N 01°16' E 103°54'0 0.0
2015-May-10 22:27N 01°16' E 103°54'0 0.1
2015-May-10 21:33N 01°16' E 103°54'7 6.8
2015-May-10 20:32N 01°12' E 103°49'1 0.0
2015-May-09 21:21N 01°12' E 103°48'0 0.4
2015-May-09 20:33N 01°12' E 103°48'4 4.0
2015-May-09 19:33N 01°15' E 103°45'5 3.8
2015-May-09 18:09N 01°12' E 103°41'0 0.1
2015-May-09 17:33N 01°12' E 103°41'0 0.1
2015-May-09 16:07N 01°11' E 103°41'0 0.0
2015-May-09 15:32N 01°11' E 103°41'  
2015-May-06 01:18N 01°41' E 102°42'1013.4
2015-May-06 00:32N 01°45' E 102°33'1313.1
2015-May-05 23:33N 01°51' E 102°21'  
Track history (hours):
 
Tides and Currents Weather Stations Pressure Air Temp Water Temp Dewpoint Dewpoint Depression Visibility Wind Speed Wind Dir Waves Ship Positions

Fair Seas

Last reported at 2015-May-14 07:32 UTC. Time now 2015-May-25 15:39 UTC.
Position N 02°00' E 102°12'.
Warning: this ship's position is 11 days out of date.

Length 250 m; draft 7.9 m.

Type: Ship (hazmat cat D). MMSI: 538003211.

Date/timePositionNaut miles runAvg speedWind from/ knotsBaromVisibWave heightAir tempDewpointWater temp
2015-May-14 07:32N 02°00' E 102°12'1412.8
2015-May-14 06:28N 01°53' E 102°24'1313.7
2015-May-14 05:33N 01°48' E 102°36'1514.5
2015-May-14 04:29N 01°42' E 102°49'6011.7
2015-May-13 23:22N 01°12' E 103°42'3 0.1
2015-May-13 06:14N 01°14' E 103°42'2 0.0
2015-May-11 09:17N 01°16' E 103°41'4 2.5
2015-May-11 07:33N 01°16' E 103°45'9 9.0
2015-May-11 06:33N 01°14' E 103°54'2 1.7
2015-May-11 05:30N 01°16' E 103°54'0 0.1
2015-May-11 04:06N 01°16' E 103°54'0 0.1
2015-May-11 02:18N 01°16' E 103°54'0 0.0
2015-May-11 01:30N 01°16' E 103°54'0 0.1
2015-May-11 00:18N 01°16' E 103°54'0 0.0
2015-May-10 23:27N 01°16' E 103°54'0 0.0
2015-May-10 22:27N 01°16' E 103°54'0 0.1
2015-May-10 21:33N 01°16' E 103°54'7 6.8
2015-May-10 20:32N 01°12' E 103°49'1 0.0
2015-May-09 21:21N 01°12' E 103°48'0 0.4
2015-May-09 20:33N 01°12' E 103°48'4 4.0
2015-May-09 19:33N 01°15' E 103°45'5 3.8
2015-May-09 18:09N 01°12' E 103°41'0 0.1
2015-May-09 17:33N 01°12' E 103°41'0 0.1
2015-May-09 16:07N 01°11' E 103°41'0 0.0
2015-May-09 15:32N 01°11' E 103°41'  
2015-May-06 01:18N 01°41' E 102°42'1013.4
2015-May-06 00:32N 01°45' E 102°33'1313.1
2015-May-05 23:33N 01°51' E 102°21'  

Dump ship's entire track history